sensor_id;sensor_type;location;lat;lon;timestamp;temperature;humidity
8563;DHT22;16392;52.508;13.468;2023-05-10T00:00:38;12.40;99.90
8563;DHT22;16392;52.508;13.468;2023-05-10T00:03:05;12.40;1.00
8563;DHT22;16392;52.508;13.468;2023-05-10T00:05:32;12.30;1.00
8563;DHT22;16392;52.508;13.468;2023-05-10T00:07:58;12.20;1.00
8563;DHT22;16392;52.508;13.468;2023-05-10T00:10:25;12.20;1.00
8563;DHT22;16392;52.508;13.468;2023-05-10T00:12:52;12.20;1.00
8563;DHT22;16392;52.508;13.468;2023-05-10T00:15:19;12.10;1.00
8563;DHT22;16392;52.508;13.468;2023-05-10T00:17:50;12.00;1.00
8563;DHT22;16392;52.508;13.468;2023-05-10T00:20:16;11.90;1.00
8563;DHT22;16392;52.508;13.468;2023-05-10T00:22:43;12.00;1.00
8563;DHT22;16392;52.508;13.468;2023-05-10T00:25:11;11.90;1.00
8563;DHT22;16392;52.508;13.468;2023-05-10T00:27:38;11.90;1.00
8563;DHT22;16392;52.508;13.468;2023-05-10T00:30:05;11.90;1.00
8563;DHT22;16392;52.508;13.468;2023-05-10T00:32:33;11.80;1.00
8563;DHT22;16392;52.508;13.468;2023-05-10T00:35:00;11.70;1.00
8563;DHT22;16392;52.508;13.468;2023-05-10T00:37:26;11.70;1.00
8563;DHT22;16392;52.508;13.468;2023-05-10T00:39:53;11.60;1.00
8563;DHT22;16392;52.508;13.468;2023-05-10T00:42:19;11.50;1.00
8563;DHT22;16392;52.508;13.468;2023-05-10T00:44:47;11.40;1.00
8563;DHT22;16392;52.508;13.468;2023-05-10T00:47:13;11.30;1.00
8563;DHT22;16392;52.508;13.468;2023-05-10T00:49:41;11.30;1.00
8563;DHT22;16392;52.508;13.468;2023-05-10T00:52:08;11.30;1.00
8563;DHT22;16392;52.508;13.468;2023-05-10T00:54:35;11.20;15.30
8563;DHT22;16392;52.508;13.468;2023-05-10T00:57:02;11.20;28.80
8563;DHT22;16392;52.508;13.468;2023-05-10T00:59:29;11.10;99.90
8563;DHT22;16392;52.508;13.468;2023-05-10T01:01:55;11.00;99.90
8563;DHT22;16392;52.508;13.468;2023-05-10T01:04:23;11.00;99.90
8563;DHT22;16392;52.508;13.468;2023-05-10T01:06:52;10.80;99.90
8563;DHT22;16392;52.508;13.468;2023-05-10T01:09:19;10.80;99.90
8563;DHT22;16392;52.508;13.468;2023-05-10T01:11:45;10.70;99.90
8563;DHT22;16392;52.508;13.468;2023-05-10T01:14:12;10.70;99.90
8563;DHT22;16392;52.508;13.468;2023-05-10T01:16:39;10.80;99.90
8563;DHT22;16392;52.508;13.468;2023-05-10T01:19:10;10.70;1.00
8563;DHT22;16392;52.508;13.468;2023-05-10T01:21:42;10.70;1.00
8563;DHT22;16392;52.508;13.468;2023-05-10T01:32:24;10.50;1.00
8563;DHT22;16392;52.508;13.468;2023-05-10T01:34:54;10.40;1.00
8563;DHT22;16392;52.508;13.468;2023-05-10T01:37:24;10.40;1.00
8563;DHT22;16392;52.508;13.468;2023-05-10T01:39:54;10.40;1.00
8563;DHT22;16392;52.508;13.468;2023-05-10T01:42:21;10.30;1.00
8563;DHT22;16392;52.508;13.468;2023-05-10T01:44:52;10.40;1.00
8563;DHT22;16392;52.508;13.468;2023-05-10T01:47:25;10.30;67.30
8563;DHT22;16392;52.508;13.468;2023-05-10T01:49:57;10.40;43.30
8563;DHT22;16392;52.508;13.468;2023-05-10T01:52:30;10.30;72.70
8563;DHT22;16392;52.508;13.468;2023-05-10T01:54:59;10.20;99.90
8563;DHT22;16392;52.508;13.468;2023-05-10T01:57:30;10.20;99.90
8563;DHT22;16392;52.508;13.468;2023-05-10T01:59:58;10.20;99.90
8563;DHT22;16392;52.508;13.468;2023-05-10T02:02:27;10.20;99.90
8563;DHT22;16392;52.508;13.468;2023-05-10T02:04:54;10.20;99.90
8563;DHT22;16392;52.508;13.468;2023-05-10T02:07:22;10.20;99.90
8563;DHT22;16392;52.508;13.468;2023-05-10T02:09:49;10.20;99.90
8563;DHT22;16392;52.508;13.468;2023-05-10T02:12:16;10.20;99.90
8563;DHT22;16392;52.508;13.468;2023-05-10T02:14:43;10.10;99.90
8563;DHT22;16392;52.508;13.468;2023-05-10T02:17:10;10.10;99.90
8563;DHT22;16392;52.508;13.468;2023-05-10T02:19:39;10.20;99.90
8563;DHT22;16392;52.508;13.468;2023-05-10T02:22:06;10.10;99.90
8563;DHT22;16392;52.508;13.468;2023-05-10T02:24:34;10.10;99.90
8563;DHT22;16392;52.508;13.468;2023-05-10T02:27:01;10.10;99.90
8563;DHT22;16392;52.508;13.468;2023-05-10T02:29:28;10.10;99.90
8563;DHT22;16392;52.508;13.468;2023-05-10T02:31:55;10.00;99.90
8563;DHT22;16392;52.508;13.468;2023-05-10T02:34:22;10.10;99.90
8563;DHT22;16392;52.508;13.468;2023-05-10T02:36:51;10.00;1.00
8563;DHT22;16392;52.508;13.468;2023-05-10T02:39:18;10.00;99.90
8563;DHT22;16392;52.508;13.468;2023-05-10T02:41:45;10.00;99.90
8563;DHT22;16392;52.508;13.468;2023-05-10T02:44:12;10.00;99.90
8563;DHT22;16392;52.508;13.468;2023-05-10T02:46:40;10.00;99.90
8563;DHT22;16392;52.508;13.468;2023-05-10T02:49:07;9.90;1.00
8563;DHT22;16392;52.508;13.468;2023-05-10T02:51:34;9.90;1.00
8563;DHT22;16392;52.508;13.468;2023-05-10T02:54:08;9.90;1.00
8563;DHT22;16392;52.508;13.468;2023-05-10T02:56:39;9.90;1.00
8563;DHT22;16392;52.508;13.468;2023-05-10T02:59:06;9.80;1.00
8563;DHT22;16392;52.508;13.468;2023-05-10T03:01:33;9.80;1.00
8563;DHT22;16392;52.508;13.468;2023-05-10T03:04:00;9.70;1.00
8563;DHT22;16392;52.508;13.468;2023-05-10T03:06:26;9.70;1.00
8563;DHT22;16392;52.508;13.468;2023-05-10T03:08:53;9.70;1.00
8563;DHT22;16392;52.508;13.468;2023-05-10T03:11:28;9.70;1.00
8563;DHT22;16392;52.508;13.468;2023-05-10T03:14:02;9.70;1.00
8563;DHT22;16392;52.508;13.468;2023-05-10T03:16:34;9.70;1.00
8563;DHT22;16392;52.508;13.468;2023-05-10T03:19:05;9.70;1.00
8563;DHT22;16392;52.508;13.468;2023-05-10T03:21:33;9.70;1.00
8563;DHT22;16392;52.508;13.468;2023-05-10T03:24:04;9.70;1.00
8563;DHT22;16392;52.508;13.468;2023-05-10T03:26:33;9.60;1.00
8563;DHT22;16392;52.508;13.468;2023-05-10T03:29:00;9.60;1.00
8563;DHT22;16392;52.508;13.468;2023-05-10T03:31:26;9.60;1.00
8563;DHT22;16392;52.508;13.468;2023-05-10T03:33:53;9.60;1.00
8563;DHT22;16392;52.508;13.468;2023-05-10T03:36:19;9.50;1.00
8563;DHT22;16392;52.508;13.468;2023-05-10T03:38:46;9.50;1.00
8563;DHT22;16392;52.508;13.468;2023-05-10T03:41:13;9.50;1.00
8563;DHT22;16392;52.508;13.468;2023-05-10T03:43:41;9.60;1.00
8563;DHT22;16392;52.508;13.468;2023-05-10T03:46:08;9.60;1.00
8563;DHT22;16392;52.508;13.468;2023-05-10T03:48:37;9.60;1.00
8563;DHT22;16392;52.508;13.468;2023-05-10T03:51:07;9.80;1.00
8563;DHT22;16392;52.508;13.468;2023-05-10T03:53:35;10.10;99.90
8563;DHT22;16392;52.508;13.468;2023-05-10T03:56:03;10.30;1.00
8563;DHT22;16392;52.508;13.468;2023-05-10T03:58:29;10.50;1.00
8563;DHT22;16392;52.508;13.468;2023-05-10T04:00:59;10.60;1.00
8563;DHT22;16392;52.508;13.468;2023-05-10T04:03:27;10.70;1.00
8563;DHT22;16392;52.508;13.468;2023-05-10T04:05:58;10.80;1.00
8563;DHT22;16392;52.508;13.468;2023-05-10T04:08:26;11.00;1.00
8563;DHT22;16392;52.508;13.468;2023-05-10T04:10:53;11.20;99.90
8563;DHT22;16392;52.508;13.468;2023-05-10T04:13:20;11.40;99.90
8563;DHT22;16392;52.508;13.468;2023-05-10T04:15:49;11.40;99.90
8563;DHT22;16392;52.508;13.468;2023-05-10T04:21:16;11.60;99.90
8563;DHT22;16392;52.508;13.468;2023-05-10T04:23:43;11.90;1.00
8563;DHT22;16392;52.508;13.468;2023-05-10T04:26:10;12.00;1.00
8563;DHT22;16392;52.508;13.468;2023-05-10T04:28:41;12.20;1.00
8563;DHT22;16392;52.508;13.468;2023-05-10T04:31:09;12.30;1.00
8563;DHT22;16392;52.508;13.468;2023-05-10T04:33:36;12.30;1.00
8563;DHT22;16392;52.508;13.468;2023-05-10T04:36:03;12.50;1.00
8563;DHT22;16392;52.508;13.468;2023-05-10T04:38:31;12.70;1.00
8563;DHT22;16392;52.508;13.468;2023-05-10T04:41:04;12.80;1.00
8563;DHT22;16392;52.508;13.468;2023-05-10T04:43:31;12.90;1.00
8563;DHT22;16392;52.508;13.468;2023-05-10T04:46:02;13.00;1.00
8563;DHT22;16392;52.508;13.468;2023-05-10T04:48:28;13.20;1.00
8563;DHT22;16392;52.508;13.468;2023-05-10T04:50:55;13.40;1.00
8563;DHT22;16392;52.508;13.468;2023-05-10T04:53:21;13.40;99.90
8563;DHT22;16392;52.508;13.468;2023-05-10T04:55:49;13.40;99.90
8563;DHT22;16392;52.508;13.468;2023-05-10T04:58:16;13.70;99.90
8563;DHT22;16392;52.508;13.468;2023-05-10T05:00:42;13.90;99.90
8563;DHT22;16392;52.508;13.468;2023-05-10T05:03:09;14.10;99.90
8563;DHT22;16392;52.508;13.468;2023-05-10T05:05:35;14.20;99.90
8563;DHT22;16392;52.508;13.468;2023-05-10T05:08:02;14.30;99.90
8563;DHT22;16392;52.508;13.468;2023-05-10T05:10:29;14.10;99.90
8563;DHT22;16392;52.508;13.468;2023-05-10T05:12:57;14.30;99.90
8563;DHT22;16392;52.508;13.468;2023-05-10T05:15:24;14.40;99.90
8563;DHT22;16392;52.508;13.468;2023-05-10T05:17:51;14.40;99.90
8563;DHT22;16392;52.508;13.468;2023-05-10T05:20:17;14.60;99.90
8563;DHT22;16392;52.508;13.468;2023-05-10T05:22:45;15.00;99.90
8563;DHT22;16392;52.508;13.468;2023-05-10T05:25:11;14.90;99.90
8563;DHT22;16392;52.508;13.468;2023-05-10T05:27:38;14.80;99.90
8563;DHT22;16392;52.508;13.468;2023-05-10T05:30:06;15.30;99.90
8563;DHT22;16392;52.508;13.468;2023-05-10T05:32:33;15.90;99.90
8563;DHT22;16392;52.508;13.468;2023-05-10T05:35:00;15.70;99.90
8563;DHT22;16392;52.508;13.468;2023-05-10T05:37:26;15.40;99.90
8563;DHT22;16392;52.508;13.468;2023-05-10T05:39:53;15.40;99.90
8563;DHT22;16392;52.508;13.468;2023-05-10T05:42:20;15.40;99.90
8563;DHT22;16392;52.508;13.468;2023-05-10T05:44:46;15.60;99.90
8563;DHT22;16392;52.508;13.468;2023-05-10T05:47:14;15.60;99.90
8563;DHT22;16392;52.508;13.468;2023-05-10T05:49:41;15.70;99.90
8563;DHT22;16392;52.508;13.468;2023-05-10T05:52:07;15.80;99.90
8563;DHT22;16392;52.508;13.468;2023-05-10T05:54:34;16.00;99.90
8563;DHT22;16392;52.508;13.468;2023-05-10T05:57:00;16.10;90.90
8563;DHT22;16392;52.508;13.468;2023-05-10T05:59:27;16.30;71.00
8563;DHT22;16392;52.508;13.468;2023-05-10T06:01:53;16.50;69.10
8563;DHT22;16392;52.508;13.468;2023-05-10T06:04:21;16.90;40.50
8563;DHT22;16392;52.508;13.468;2023-05-10T06:06:48;17.30;17.90
8563;DHT22;16392;52.508;13.468;2023-05-10T06:09:14;17.40;9.30
8563;DHT22;16392;52.508;13.468;2023-05-10T06:11:41;17.50;3.90
8563;DHT22;16392;52.508;13.468;2023-05-10T06:14:08;17.50;1.00
8563;DHT22;16392;52.508;13.468;2023-05-10T06:16:34;18.00;1.00
8563;DHT22;16392;52.508;13.468;2023-05-10T06:19:01;17.90;1.00
8563;DHT22;16392;52.508;13.468;2023-05-10T06:21:31;18.10;1.00
8563;DHT22;16392;52.508;13.468;2023-05-10T06:23:58;18.60;1.00
8563;DHT22;16392;52.508;13.468;2023-05-10T06:26:25;18.50;1.00
8563;DHT22;16392;52.508;13.468;2023-05-10T06:28:52;18.00;1.00
8563;DHT22;16392;52.508;13.468;2023-05-10T06:31:18;18.30;1.00
8563;DHT22;16392;52.508;13.468;2023-05-10T06:33:45;17.40;1.00
8563;DHT22;16392;52.508;13.468;2023-05-10T06:36:11;17.90;1.00
8563;DHT22;16392;52.508;13.468;2023-05-10T06:38:39;18.30;1.00
8563;DHT22;16392;52.508;13.468;2023-05-10T06:41:06;18.00;1.00
8563;DHT22;16392;52.508;13.468;2023-05-10T06:43:33;17.90;1.00
8563;DHT22;16392;52.508;13.468;2023-05-10T06:46:00;17.90;1.00
8563;DHT22;16392;52.508;13.468;2023-05-10T06:48:26;18.40;1.00
8563;DHT22;16392;52.508;13.468;2023-05-10T06:50:53;18.40;1.00
8563;DHT22;16392;52.508;13.468;2023-05-10T06:53:19;18.40;1.00
8563;DHT22;16392;52.508;13.468;2023-05-10T06:55:48;18.50;1.00
8563;DHT22;16392;52.508;13.468;2023-05-10T06:58:15;18.10;1.00
8563;DHT22;16392;52.508;13.468;2023-05-10T07:00:42;18.80;1.00
8563;DHT22;16392;52.508;13.468;2023-05-10T07:03:08;18.80;1.00
8563;DHT22;16392;52.508;13.468;2023-05-10T07:05:35;19.10;1.00
8563;DHT22;16392;52.508;13.468;2023-05-10T07:08:02;19.40;1.00
8563;DHT22;16392;52.508;13.468;2023-05-10T07:10:29;19.40;1.00
8563;DHT22;16392;52.508;13.468;2023-05-10T07:12:56;19.30;1.00
8563;DHT22;16392;52.508;13.468;2023-05-10T07:15:23;19.20;1.00
8563;DHT22;16392;52.508;13.468;2023-05-10T07:17:50;19.40;1.00
8563;DHT22;16392;52.508;13.468;2023-05-10T07:20:17;19.20;1.00
8563;DHT22;16392;52.508;13.468;2023-05-10T07:22:43;19.30;1.00
8563;DHT22;16392;52.508;13.468;2023-05-10T07:25:10;19.30;1.00
8563;DHT22;16392;52.508;13.468;2023-05-10T07:27:36;19.40;1.00
8563;DHT22;16392;52.508;13.468;2023-05-10T07:30:05;19.60;1.00
8563;DHT22;16392;52.508;13.468;2023-05-10T07:32:32;19.30;1.00
8563;DHT22;16392;52.508;13.468;2023-05-10T07:34:58;20.00;1.00
8563;DHT22;16392;52.508;13.468;2023-05-10T07:37:25;19.90;1.00
8563;DHT22;16392;52.508;13.468;2023-05-10T07:39:52;19.70;1.00
8563;DHT22;16392;52.508;13.468;2023-05-10T07:42:18;19.40;1.00
8563;DHT22;16392;52.508;13.468;2023-05-10T07:44:45;19.00;1.00
8563;DHT22;16392;52.508;13.468;2023-05-10T07:47:13;19.00;1.00
8563;DHT22;16392;52.508;13.468;2023-05-10T07:49:40;19.30;1.00
8563;DHT22;16392;52.508;13.468;2023-05-10T07:52:07;19.60;1.00
8563;DHT22;16392;52.508;13.468;2023-05-10T07:54:33;19.60;1.00
8563;DHT22;16392;52.508;13.468;2023-05-10T07:57:00;19.50;1.00
8563;DHT22;16392;52.508;13.468;2023-05-10T07:59:26;19.90;1.00
8563;DHT22;16392;52.508;13.468;2023-05-10T08:01:53;20.00;1.00
8563;DHT22;16392;52.508;13.468;2023-05-10T08:04:21;20.10;1.00
8563;DHT22;16392;52.508;13.468;2023-05-10T08:06:47;20.50;1.00
8563;DHT22;16392;52.508;13.468;2023-05-10T08:09:14;20.70;1.00
8563;DHT22;16392;52.508;13.468;2023-05-10T08:11:40;20.00;1.00
8563;DHT22;16392;52.508;13.468;2023-05-10T08:14:07;20.40;1.00
8563;DHT22;16392;52.508;13.468;2023-05-10T08:16:33;20.90;1.00
8563;DHT22;16392;52.508;13.468;2023-05-10T08:19:00;20.50;1.00
8563;DHT22;16392;52.508;13.468;2023-05-10T08:21:28;20.80;1.00
8563;DHT22;16392;52.508;13.468;2023-05-10T08:23:56;20.20;1.00
8563;DHT22;16392;52.508;13.468;2023-05-10T08:26:23;19.90;1.00
8563;DHT22;16392;52.508;13.468;2023-05-10T08:28:49;19.90;1.00
8563;DHT22;16392;52.508;13.468;2023-05-10T08:31:16;20.10;1.00
8563;DHT22;16392;52.508;13.468;2023-05-10T08:33:44;20.20;1.00
8563;DHT22;16392;52.508;13.468;2023-05-10T08:36:10;20.20;1.00
8563;DHT22;16392;52.508;13.468;2023-05-10T08:38:40;20.20;1.00
8563;DHT22;16392;52.508;13.468;2023-05-10T08:41:07;20.20;1.00
8563;DHT22;16392;52.508;13.468;2023-05-10T08:46:02;21.50;1.00
8563;DHT22;16392;52.508;13.468;2023-05-10T08:48:37;21.10;1.00
8563;DHT22;16392;52.508;13.468;2023-05-10T08:51:05;20.70;1.00
8563;DHT22;16392;52.508;13.468;2023-05-10T08:53:33;20.80;1.00
8563;DHT22;16392;52.508;13.468;2023-05-10T08:59:06;21.10;1.00
8563;DHT22;16392;52.508;13.468;2023-05-10T09:01:33;21.20;1.00
8563;DHT22;16392;52.508;13.468;2023-05-10T09:04:02;21.50;1.00
8563;DHT22;16392;52.508;13.468;2023-05-10T09:06:31;21.20;1.00
8563;DHT22;16392;52.508;13.468;2023-05-10T09:08:58;21.40;1.00
8563;DHT22;16392;52.508;13.468;2023-05-10T09:11:25;21.20;1.00
8563;DHT22;16392;52.508;13.468;2023-05-10T09:13:54;21.20;1.00
8563;DHT22;16392;52.508;13.468;2023-05-10T09:16:22;21.30;1.00
8563;DHT22;16392;52.508;13.468;2023-05-10T09:18:50;21.40;1.00
8563;DHT22;16392;52.508;13.468;2023-05-10T09:21:16;21.40;1.00
8563;DHT22;16392;52.508;13.468;2023-05-10T09:23:43;21.30;1.00
8563;DHT22;16392;52.508;13.468;2023-05-10T09:26:10;21.10;1.00
8563;DHT22;16392;52.508;13.468;2023-05-10T09:28:50;21.30;1.00
8563;DHT22;16392;52.508;13.468;2023-05-10T09:31:16;21.40;1.00
8563;DHT22;16392;52.508;13.468;2023-05-10T09:33:45;21.60;1.00
8563;DHT22;16392;52.508;13.468;2023-05-10T09:36:12;21.80;1.00
8563;DHT22;16392;52.508;13.468;2023-05-10T09:38:45;22.00;1.00
8563;DHT22;16392;52.508;13.468;2023-05-10T09:41:16;22.10;1.00
8563;DHT22;16392;52.508;13.468;2023-05-10T09:43:43;22.10;1.00
8563;DHT22;16392;52.508;13.468;2023-05-10T09:46:10;21.90;1.00
8563;DHT22;16392;52.508;13.468;2023-05-10T09:48:39;22.10;1.00
8563;DHT22;16392;52.508;13.468;2023-05-10T09:51:09;22.40;1.00
8563;DHT22;16392;52.508;13.468;2023-05-10T09:53:36;22.60;1.00
8563;DHT22;16392;52.508;13.468;2023-05-10T09:56:03;22.60;1.00
8563;DHT22;16392;52.508;13.468;2023-05-10T09:58:29;23.00;1.00
8563;DHT22;16392;52.508;13.468;2023-05-10T10:00:59;22.00;1.00
8563;DHT22;16392;52.508;13.468;2023-05-10T10:03:41;21.60;1.00
8563;DHT22;16392;52.508;13.468;2023-05-10T10:06:27;22.00;1.00
8563;DHT22;16392;52.508;13.468;2023-05-10T10:08:58;22.10;1.00
8563;DHT22;16392;52.508;13.468;2023-05-10T10:11:28;22.20;1.00
8563;DHT22;16392;52.508;13.468;2023-05-10T10:14:06;21.90;1.00
8563;DHT22;16392;52.508;13.468;2023-05-10T10:16:36;21.50;1.00
8563;DHT22;16392;52.508;13.468;2023-05-10T10:19:03;21.70;1.00
8563;DHT22;16392;52.508;13.468;2023-05-10T10:21:31;22.10;1.00
8563;DHT22;16392;52.508;13.468;2023-05-10T10:23:58;21.70;1.00
8563;DHT22;16392;52.508;13.468;2023-05-10T10:26:25;22.20;1.00
8563;DHT22;16392;52.508;13.468;2023-05-10T10:28:57;22.30;1.00
8563;DHT22;16392;52.508;13.468;2023-05-10T10:31:28;22.10;1.00
8563;DHT22;16392;52.508;13.468;2023-05-10T10:34:03;21.50;1.00
8563;DHT22;16392;52.508;13.468;2023-05-10T10:36:34;22.00;1.00
8563;DHT22;16392;52.508;13.468;2023-05-10T10:39:08;22.40;1.00
8563;DHT22;16392;52.508;13.468;2023-05-10T10:41:35;22.50;1.00
8563;DHT22;16392;52.508;13.468;2023-05-10T10:46:58;22.20;1.00
8563;DHT22;16392;52.508;13.468;2023-05-10T10:49:24;22.20;1.00
8563;DHT22;16392;52.508;13.468;2023-05-10T10:54:38;23.00;1.00
8563;DHT22;16392;52.508;13.468;2023-05-10T10:57:11;23.40;1.00
8563;DHT22;16392;52.508;13.468;2023-05-10T10:59:41;23.20;1.00
8563;DHT22;16392;52.508;13.468;2023-05-10T11:02:08;22.40;1.00
8563;DHT22;16392;52.508;13.468;2023-05-10T11:04:41;21.90;1.00
8563;DHT22;16392;52.508;13.468;2023-05-10T11:07:18;22.10;1.00
8563;DHT22;16392;52.508;13.468;2023-05-10T11:09:47;22.10;1.00
8563;DHT22;16392;52.508;13.468;2023-05-10T11:12:13;22.90;1.00
8563;DHT22;16392;52.508;13.468;2023-05-10T11:14:40;23.30;1.00
8563;DHT22;16392;52.508;13.468;2023-05-10T11:20:02;22.90;1.00
8563;DHT22;16392;52.508;13.468;2023-05-10T11:22:29;23.20;1.00
8563;DHT22;16392;52.508;13.468;2023-05-10T11:25:16;23.30;1.00
8563;DHT22;16392;52.508;13.468;2023-05-10T11:27:42;23.90;1.00
8563;DHT22;16392;52.508;13.468;2023-05-10T11:30:09;24.00;1.00
8563;DHT22;16392;52.508;13.468;2023-05-10T11:32:36;23.50;1.00
8563;DHT22;16392;52.508;13.468;2023-05-10T11:35:06;23.20;1.00
8563;DHT22;16392;52.508;13.468;2023-05-10T11:37:33;22.70;1.00
8563;DHT22;16392;52.508;13.468;2023-05-10T11:39:59;23.20;1.00
8563;DHT22;16392;52.508;13.468;2023-05-10T11:42:28;22.80;1.00
8563;DHT22;16392;52.508;13.468;2023-05-10T11:44:55;23.00;1.00
8563;DHT22;16392;52.508;13.468;2023-05-10T11:47:22;23.20;1.00
8563;DHT22;16392;52.508;13.468;2023-05-10T11:49:48;23.30;1.00
8563;DHT22;16392;52.508;13.468;2023-05-10T11:52:15;23.30;1.00
8563;DHT22;16392;52.508;13.468;2023-05-10T11:54:45;23.20;1.00
8563;DHT22;16392;52.508;13.468;2023-05-10T11:57:11;23.20;1.00
8563;DHT22;16392;52.508;13.468;2023-05-10T11:59:39;23.00;1.00
8563;DHT22;16392;52.508;13.468;2023-05-10T12:02:06;23.30;1.00
8563;DHT22;16392;52.508;13.468;2023-05-10T12:04:32;23.40;1.00
8563;DHT22;16392;52.508;13.468;2023-05-10T12:06:59;23.20;1.00
8563;DHT22;16392;52.508;13.468;2023-05-10T12:09:26;23.30;1.00
8563;DHT22;16392;52.508;13.468;2023-05-10T12:11:55;23.50;1.00
8563;DHT22;16392;52.508;13.468;2023-05-10T12:14:21;23.60;1.00
8563;DHT22;16392;52.508;13.468;2023-05-10T12:16:50;23.60;1.00
8563;DHT22;16392;52.508;13.468;2023-05-10T12:19:18;23.60;1.00
8563;DHT22;16392;52.508;13.468;2023-05-10T12:21:44;23.80;1.00
8563;DHT22;16392;52.508;13.468;2023-05-10T12:24:12;24.10;1.00
8563;DHT22;16392;52.508;13.468;2023-05-10T12:26:39;24.20;1.00
8563;DHT22;16392;52.508;13.468;2023-05-10T12:29:12;24.60;1.00
8563;DHT22;16392;52.508;13.468;2023-05-10T12:31:53;24.20;1.00
8563;DHT22;16392;52.508;13.468;2023-05-10T12:34:26;23.80;1.00
8563;DHT22;16392;52.508;13.468;2023-05-10T12:36:53;23.20;1.00
8563;DHT22;16392;52.508;13.468;2023-05-10T12:39:20;23.60;1.00
8563;DHT22;16392;52.508;13.468;2023-05-10T12:41:46;23.90;1.00
8563;DHT22;16392;52.508;13.468;2023-05-10T12:44:13;24.20;1.00
8563;DHT22;16392;52.508;13.468;2023-05-10T12:46:39;24.30;1.00
8563;DHT22;16392;52.508;13.468;2023-05-10T12:49:07;24.30;1.00
8563;DHT22;16392;52.508;13.468;2023-05-10T12:51:34;23.90;1.00
8563;DHT22;16392;52.508;13.468;2023-05-10T12:54:01;24.30;1.00
8563;DHT22;16392;52.508;13.468;2023-05-10T12:56:28;24.50;1.00
8563;DHT22;16392;52.508;13.468;2023-05-10T12:58:54;24.20;1.00
8563;DHT22;16392;52.508;13.468;2023-05-10T13:01:21;24.20;1.00
8563;DHT22;16392;52.508;13.468;2023-05-10T13:03:47;24.40;1.00
8563;DHT22;16392;52.508;13.468;2023-05-10T13:06:16;24.60;1.00
8563;DHT22;16392;52.508;13.468;2023-05-10T13:08:42;24.90;1.00
8563;DHT22;16392;52.508;13.468;2023-05-10T13:11:09;25.40;1.00
8563;DHT22;16392;52.508;13.468;2023-05-10T13:13:35;25.20;1.00
8563;DHT22;16392;52.508;13.468;2023-05-10T13:16:01;24.10;1.00
8563;DHT22;16392;52.508;13.468;2023-05-10T13:18:28;24.10;1.00
8563;DHT22;16392;52.508;13.468;2023-05-10T13:20:54;24.10;1.00
8563;DHT22;16392;52.508;13.468;2023-05-10T13:23:23;23.60;1.00
8563;DHT22;16392;52.508;13.468;2023-05-10T13:25:49;23.70;1.00
8563;DHT22;16392;52.508;13.468;2023-05-10T13:28:16;23.90;1.00
8563;DHT22;16392;52.508;13.468;2023-05-10T13:30:42;24.60;1.00
8563;DHT22;16392;52.508;13.468;2023-05-10T13:33:09;24.40;1.00
8563;DHT22;16392;52.508;13.468;2023-05-10T13:35:35;24.50;1.00
8563;DHT22;16392;52.508;13.468;2023-05-10T13:38:02;24.50;1.00
8563;DHT22;16392;52.508;13.468;2023-05-10T13:40:29;24.30;1.00
8563;DHT22;16392;52.508;13.468;2023-05-10T13:42:56;24.30;1.00
8563;DHT22;16392;52.508;13.468;2023-05-10T13:45:22;24.20;1.00
8563;DHT22;16392;52.508;13.468;2023-05-10T13:47:49;24.70;1.00
8563;DHT22;16392;52.508;13.468;2023-05-10T13:50:17;24.90;1.00
8563;DHT22;16392;52.508;13.468;2023-05-10T13:52:43;25.00;1.00
8563;DHT22;16392;52.508;13.468;2023-05-10T13:55:10;24.60;1.00
8563;DHT22;16392;52.508;13.468;2023-05-10T13:57:38;24.50;1.00
8563;DHT22;16392;52.508;13.468;2023-05-10T14:00:06;24.50;1.00
8563;DHT22;16392;52.508;13.468;2023-05-10T14:02:33;24.30;1.00
8563;DHT22;16392;52.508;13.468;2023-05-10T14:04:59;24.60;1.00
8563;DHT22;16392;52.508;13.468;2023-05-10T14:07:26;24.10;1.00
8563;DHT22;16392;52.508;13.468;2023-05-10T14:09:53;24.10;1.00
8563;DHT22;16392;52.508;13.468;2023-05-10T14:12:19;24.10;1.00
8563;DHT22;16392;52.508;13.468;2023-05-10T14:14:47;24.50;1.00
8563;DHT22;16392;52.508;13.468;2023-05-10T14:17:14;24.60;1.00
8563;DHT22;16392;52.508;13.468;2023-05-10T14:19:40;24.60;1.00
8563;DHT22;16392;52.508;13.468;2023-05-10T14:22:07;24.90;1.00
8563;DHT22;16392;52.508;13.468;2023-05-10T14:24:33;25.00;1.00
8563;DHT22;16392;52.508;13.468;2023-05-10T14:27:00;25.10;1.00
8563;DHT22;16392;52.508;13.468;2023-05-10T14:29:26;24.50;1.00
8563;DHT22;16392;52.508;13.468;2023-05-10T14:31:54;24.50;1.00
8563;DHT22;16392;52.508;13.468;2023-05-10T14:34:21;24.40;1.00
8563;DHT22;16392;52.508;13.468;2023-05-10T14:36:47;24.40;1.00
8563;DHT22;16392;52.508;13.468;2023-05-10T14:39:13;24.20;1.00
8563;DHT22;16392;52.508;13.468;2023-05-10T14:41:40;23.90;1.00
8563;DHT22;16392;52.508;13.468;2023-05-10T14:44:08;23.90;1.00
8563;DHT22;16392;52.508;13.468;2023-05-10T14:46:35;23.60;1.00
8563;DHT22;16392;52.508;13.468;2023-05-10T14:49:03;23.50;1.00
8563;DHT22;16392;52.508;13.468;2023-05-10T14:51:30;23.50;1.00
8563;DHT22;16392;52.508;13.468;2023-05-10T14:53:56;23.50;1.00
8563;DHT22;16392;52.508;13.468;2023-05-10T14:56:23;23.50;1.00
8563;DHT22;16392;52.508;13.468;2023-05-10T14:58:51;23.50;1.00
8563;DHT22;16392;52.508;13.468;2023-05-10T15:01:17;23.60;1.00
8563;DHT22;16392;52.508;13.468;2023-05-10T15:03:44;23.50;1.00
8563;DHT22;16392;52.508;13.468;2023-05-10T15:06:13;23.30;1.00
8563;DHT22;16392;52.508;13.468;2023-05-10T15:08:39;23.30;1.00
8563;DHT22;16392;52.508;13.468;2023-05-10T15:11:06;23.50;1.00
8563;DHT22;16392;52.508;13.468;2023-05-10T15:13:32;23.50;1.00
8563;DHT22;16392;52.508;13.468;2023-05-10T15:15:59;23.20;1.00
8563;DHT22;16392;52.508;13.468;2023-05-10T15:18:26;23.20;1.00
8563;DHT22;16392;52.508;13.468;2023-05-10T15:20:52;23.20;1.00
8563;DHT22;16392;52.508;13.468;2023-05-10T15:23:21;23.20;1.00
8563;DHT22;16392;52.508;13.468;2023-05-10T15:25:48;22.90;1.00
8563;DHT22;16392;52.508;13.468;2023-05-10T15:28:15;22.80;1.00
8563;DHT22;16392;52.508;13.468;2023-05-10T15:30:42;22.70;1.00
8563;DHT22;16392;52.508;13.468;2023-05-10T15:33:09;22.70;1.00
8563;DHT22;16392;52.508;13.468;2023-05-10T15:35:35;22.70;1.00
8563;DHT22;16392;52.508;13.468;2023-05-10T15:38:03;22.50;1.00
8563;DHT22;16392;52.508;13.468;2023-05-10T15:40:31;22.40;1.00
8563;DHT22;16392;52.508;13.468;2023-05-10T15:42:58;22.30;1.00
8563;DHT22;16392;52.508;13.468;2023-05-10T15:45:24;22.30;1.00
8563;DHT22;16392;52.508;13.468;2023-05-10T15:47:51;22.40;1.00
8563;DHT22;16392;52.508;13.468;2023-05-10T15:50:18;22.40;1.00
8563;DHT22;16392;52.508;13.468;2023-05-10T15:52:44;22.40;1.00
8563;DHT22;16392;52.508;13.468;2023-05-10T15:55:11;22.50;1.00
8563;DHT22;16392;52.508;13.468;2023-05-10T15:57:42;22.60;1.00
8563;DHT22;16392;52.508;13.468;2023-05-10T16:00:09;22.80;1.00
8563;DHT22;16392;52.508;13.468;2023-05-10T16:02:36;22.90;1.00
8563;DHT22;16392;52.508;13.468;2023-05-10T16:05:03;22.80;1.00
8563;DHT22;16392;52.508;13.468;2023-05-10T16:07:30;22.80;1.00
8563;DHT22;16392;52.508;13.468;2023-05-10T16:09:57;22.70;1.00
8563;DHT22;16392;52.508;13.468;2023-05-10T16:12:23;22.70;1.00